Time;durP1;ratioP1;P1;durP2;ratioP2;P2;SDS_P1;SDS_P2;PMS_P1;PMS_P2;Temp;Humidity;BMP_temperature;BMP_pressure;BME280_temperature;BME280_humidity;BME280_pressure;Samples;Min_cycle;Max_cycle;Signal;HPM_P1;HPM_P2
2021/01/07 04:33:06;;;;;;;7.90;7.10;;;;;;;6.47;59.32;98495.31;7063245;23;20239;-87
2021/01/07 04:36:27;;;;;;;8.17;7.37;;;;;;;7.01;58.76;98512.69;6834064;28;20206;-87
2021/01/07 04:39:48;;;;;;;7.43;6.73;;;;;;;7.01;58.76;98501.97;6833480;29;20237;-87
2021/01/07 04:43:09;;;;;;;8.20;7.37;;;;;;;7.02;58.19;98474.13;6834506;29;20274;-88
2021/01/07 04:46:30;;;;;;;9.90;7.43;;;;;;;6.36;60.13;98496.63;6835045;28;20253;-87
2021/01/07 04:49:52;;;;;;;7.13;6.43;;;;;;;6.89;58.85;98506.16;6834502;28;20202;-87
2021/01/07 04:53:14;;;;;;;6.67;5.90;;;;;;;6.93;58.34;98486.81;6834653;28;20568;-87
2021/01/07 04:56:35;;;;;;;7.60;6.47;;;;;;;7.13;57.87;98520.00;6834617;29;20242;-87
2021/01/07 04:59:56;;;;;;;7.33;6.40;;;;;;;6.67;58.79;98529.38;6834483;29;20267;-84
2021/01/07 05:03:21;;;;;;;7.40;6.70;;;;;;;6.63;59.44;98524.59;6841701;28;20251;-88
2021/01/07 05:06:43;;;;;;;7.73;6.93;;;;;;;7.21;58.17;98519.06;6834750;28;20206;-87
2021/01/07 05:10:05;;;;;;;7.70;6.87;;;;;;;7.39;57.37;98519.44;6832904;29;20246;-86
2021/01/07 05:13:26;;;;;;;20.83;14.40;;;;;;;7.12;57.38;98510.31;6833630;29;20223;-86
2021/01/07 05:16:47;;;;;;;14.90;10.67;;;;;;;7.19;57.97;98521.13;6835718;28;20253;-87
2021/01/07 05:20:10;;;;;;;8.27;7.37;;;;;;;7.06;58.00;98494.16;6832026;28;20218;-88
2021/01/07 05:23:32;;;;;;;7.53;6.83;;;;;;;6.98;58.17;98513.88;6840966;28;20229;-88
2021/01/07 05:26:53;;;;;;;7.70;6.23;;;;;;;7.02;58.43;98490.22;6858769;28;20213;-88
2021/01/07 05:30:15;;;;;;;7.40;6.70;;;;;;;7.52;57.52;98509.69;6859734;28;20678;-86
2021/01/07 05:33:39;;;;;;;7.53;6.40;;;;;;;7.55;57.14;98513.84;6839769;28;20212;-87
2021/01/07 05:37:00;;;;;;;8.00;7.20;;;;;;;6.94;58.63;98503.72;6833578;29;20215;-88
2021/01/07 05:40:23;;;;;;;7.87;7.00;;;;;;;7.07;59.38;98518.09;6834524;28;20249;-87
2021/01/07 05:43:45;;;;;;;8.77;7.53;;;;;;;6.73;59.91;98517.09;6833860;29;20225;-87
2021/01/07 05:47:06;;;;;;;7.47;6.67;;;;;;;7.12;59.67;98523.72;6833297;29;20201;-87
2021/01/07 05:50:29;;;;;;;7.57;6.83;;;;;;;7.29;58.80;98519.78;6832984;29;20209;-86
2021/01/07 05:53:51;;;;;;;8.40;7.40;;;;;;;7.32;58.40;98505.16;6833325;29;20198;-87
2021/01/07 05:57:13;;;;;;;8.07;6.93;;;;;;;7.42;57.53;98506.50;6833658;29;20205;-86
2021/01/07 06:00:35;;;;;;;8.27;7.00;;;;;;;7.37;57.68;98508.91;6832504;29;20262;-86
2021/01/07 06:03:56;;;;;;;8.23;7.37;;;;;;;7.26;57.43;98498.69;6833357;29;20211;-87
2021/01/07 06:07:17;;;;;;;8.90;7.40;;;;;;;7.05;58.17;98468.38;6832984;29;20202;-86
2021/01/07 06:10:39;;;;;;;8.87;7.97;;;;;;;7.10;58.30;98511.53;6832781;29;20230;-88
2021/01/07 06:14:03;;;;;;;9.57;8.40;;;;;;;6.81;57.99;98437.44;6833752;29;20237;-88
2021/01/07 06:17:24;;;;;;;9.77;8.07;;;;;;;7.27;58.00;98497.69;6833406;29;20210;-86
2021/01/07 06:20:45;;;;;;;10.63;9.00;;;;;;;7.31;58.29;98511.56;6835540;28;20236;-86
2021/01/07 06:24:08;;;;;;;9.33;8.33;;;;;;;7.14;57.80;98505.59;6837551;29;20212;-87
2021/01/07 06:27:31;;;;;;;9.00;8.10;;;;;;;7.36;57.20;98503.75;6837765;29;20221;-86
2021/01/07 06:30:56;;;;;;;10.77;9.10;;;;;;;7.21;57.84;98521.75;6859813;28;20234;-87
2021/01/07 06:34:27;;;;;;;12.20;8.97;;;;;;;6.61;58.94;98510.56;6857534;28;20216;-86
2021/01/07 06:37:50;;;;;;;10.33;9.23;;;;;;;6.87;58.84;98518.91;6844619;28;20212;-86
2021/01/07 06:41:12;;;;;;;10.80;9.27;;;;;;;6.80;59.71;98532.22;6839479;28;20467;-87
2021/01/07 06:44:33;;;;;;;12.13;10.33;;;;;;;6.65;59.32;98520.69;6837456;29;20227;-86
2021/01/07 06:47:56;;;;;;;11.63;8.90;;;;;;;6.95;58.25;98505.41;6842018;28;20207;-85
2021/01/07 06:51:17;;;;;;;9.97;8.90;;;;;;;7.03;58.02;98521.34;6859338;28;20230;-85
2021/01/07 06:54:41;;;;;;;11.60;9.47;;;;;;;7.05;58.13;98535.38;6855034;28;20239;-84
2021/01/07 06:58:02;;;;;;;11.17;9.13;;;;;;;6.73;58.04;98493.78;6864715;28;20272;-85
2021/01/07 07:01:24;;;;;;;13.63;10.67;;;;;;;6.92;57.36;98498.56;6863647;28;20271;-85
2021/01/07 07:04:48;;;;;;;12.97;9.33;;;;;;;6.69;58.23;98535.38;6863933;28;20683;-86
2021/01/07 07:08:10;;;;;;;14.03;10.17;;;;;;;6.50;59.22;98522.59;6863560;28;20218;-86
2021/01/07 07:11:32;;;;;;;15.90;10.77;;;;;;;6.91;58.21;98542.47;6863917;28;20231;-85
2021/01/07 07:14:53;;;;;;;15.33;11.27;;;;;;;6.95;58.55;98541.06;6864358;28;20219;-85
2021/01/07 07:18:24;;;;;;;12.33;10.33;;;;;;;6.62;59.53;98555.06;6863897;28;20344;-86
2021/01/07 07:21:56;;;;;;;14.10;10.67;;;;;;;5.88;59.24;98411.59;6863185;28;20243;-86
2021/01/07 07:25:23;;;;;;;14.40;11.77;;;;;;;6.90;59.61;98548.81;6855485;28;20774;-87
2021/01/07 07:28:46;;;;;;;14.73;11.50;;;;;;;6.98;58.87;98529.13;6863261;28;20200;-86
2021/01/07 07:32:24;;;;;;;14.47;11.00;;;;;;;6.74;59.90;98542.84;6861134;28;20240;-89
2021/01/07 07:35:45;;;;;;;14.53;11.40;;;;;;;6.29;60.50;98518.97;6862785;28;20277;-87
2021/01/07 07:39:08;;;;;;;13.87;10.60;;;;;;;6.80;59.95;98544.78;6862841;28;20210;-87
2021/01/07 07:42:33;;;;;;;16.53;11.43;;;;;;;7.26;58.74;98549.63;6861551;28;20242;-86
2021/01/07 07:45:54;;;;;;;16.33;11.33;;;;;;;6.69;59.42;98537.22;6862786;28;20626;-86
2021/01/07 07:49:15;;;;;;;15.43;10.70;;;;;;;6.60;57.91;98485.59;6862997;28;20659;-86
2021/01/07 07:52:36;;;;;;;14.97;11.07;;;;;;;6.50;59.08;98511.88;6861897;28;20600;-87
2021/01/07 07:55:59;;;;;;;21.27;17.57;;;;;;;6.89;58.91;98560.56;6836670;28;20678;-87
2021/01/07 07:59:22;;;;;;;21.57;19.37;;;;;;;7.09;58.74;98545.56;6835636;29;20211;-87
2021/01/07 08:02:51;;;;;;;16.50;12.13;;;;;;;7.35;57.95;98555.72;6832097;28;20249;-87
2021/01/07 08:06:12;;;;;;;13.93;11.13;;;;;;;7.44;57.54;98547.38;6844299;28;20568;-87
2021/01/07 08:09:35;;;;;;;14.40;11.03;;;;;;;7.41;57.09;98528.13;6862764;28;20215;-87
2021/01/07 08:12:57;;;;;;;13.07;10.60;;;;;;;7.17;57.47;98566.88;6845198;28;20228;-87
2021/01/07 08:16:26;;;;;;;14.33;10.97;;;;;;;6.53;58.46;98562.38;6859454;28;20278;-87
2021/01/07 08:19:47;;;;;;;13.93;10.53;;;;;;;7.07;57.67;98547.59;6835114;29;20213;-87
2021/01/07 08:23:12;;;;;;;13.47;10.63;;;;;;;7.26;56.64;98560.38;6835981;29;20231;-86
2021/01/07 08:26:34;;;;;;;14.07;11.27;;;;;;;7.06;57.45;98572.72;6847193;28;20207;-88
2021/01/07 08:29:58;;;;;;;17.20;11.43;;;;;;;7.11;57.54;98532.78;6852641;28;20213;-88
2021/01/07 08:33:21;;;;;;;14.57;10.63;;;;;;;7.38;57.50;98574.94;6875555;28;20230;-87
2021/01/07 08:36:43;;;;;;;14.73;10.80;;;;;;;7.72;56.37;98574.25;6889496;28;20729;-87
2021/01/07 08:40:06;;;;;;;15.33;11.20;;;;;;;7.62;56.45;98582.63;6888352;28;20234;-87
2021/01/07 08:43:27;;;;;;;14.70;11.60;;;;;;;7.38;57.48;98585.66;6888564;28;20225;-87
2021/01/07 08:46:53;;;;;;;19.30;13.33;;;;;;;6.84;57.33;98498.66;6888844;28;20660;-88
2021/01/07 08:50:15;;;;;;;17.27;12.97;;;;;;;7.33;56.56;98512.19;6888385;28;20658;-88
2021/01/07 08:53:46;;;;;;;18.97;13.37;;;;;;;7.35;57.86;98585.22;6878675;28;20344;-87
2021/01/07 08:57:11;;;;;;;18.10;12.40;;;;;;;7.02;58.81;98576.78;6863314;28;20196;-87
2021/01/07 09:00:32;;;;;;;17.23;13.43;;;;;;;7.05;58.15;98579.13;6863375;28;20241;-87
2021/01/07 09:04:00;;;;;;;18.40;13.03;;;;;;;7.26;58.81;98594.41;6854333;28;20207;-85
2021/01/07 09:07:21;;;;;;;17.60;13.73;;;;;;;7.46;58.18;98590.91;6835957;29;20612;-87
2021/01/07 09:10:42;;;;;;;17.60;11.90;;;;;;;7.60;57.88;98575.78;6861993;28;20232;-87
2021/01/07 09:14:05;;;;;;;17.27;12.83;;;;;;;7.67;58.63;98574.00;6856363;28;20270;-86
2021/01/07 09:17:37;;;;;;;17.57;13.37;;;;;;;7.72;57.33;98536.69;6835798;28;20606;-86
2021/01/07 09:21:13;;;;;;;15.53;11.67;;;;;;;7.88;57.12;98580.16;6833907;29;20235;-86
2021/01/07 09:24:35;;;;;;;16.67;12.23;;;;;;;7.58;57.46;98583.19;6834575;28;20280;-88
2021/01/07 09:27:57;;;;;;;15.33;10.60;;;;;;;7.69;55.91;98564.72;6834821;29;20221;-88
2021/01/07 09:31:18;;;;;;;15.73;11.00;;;;;;;7.83;56.12;98579.91;6833530;29;20707;-87
2021/01/07 09:34:40;;;;;;;15.07;11.73;;;;;;;7.71;56.95;98578.78;6834050;29;20792;-87
2021/01/07 09:38:02;;;;;;;15.47;12.67;;;;;;;7.90;56.13;98594.22;6834030;29;20215;-86
2021/01/07 09:41:24;;;;;;;23.27;15.30;;;;;;;8.05;55.94;98596.81;6838154;28;20224;-87
2021/01/07 09:44:45;;;;;;;18.23;13.97;;;;;;;7.73;54.82;98549.88;6860488;28;20218;-87
2021/01/07 09:48:07;;;;;;;15.73;11.77;;;;;;;7.59;55.59;98564.22;6836319;28;20204;-87
2021/01/07 09:51:28;;;;;;;16.73;11.87;;;;;;;6.98;55.95;98449.56;6838278;28;20221;-87
2021/01/07 09:54:50;;;;;;;14.87;11.17;;;;;;;7.70;56.59;98595.91;6836194;28;20243;-88
2021/01/07 09:58:12;;;;;;;15.27;11.97;;;;;;;7.79;55.93;98569.78;6839109;29;20208;-85
2021/01/07 10:01:33;;;;;;;15.63;11.17;;;;;;;7.68;56.71;98555.03;6838957;28;20276;-85
2021/01/07 10:04:54;;;;;;;16.57;12.63;;;;;;;8.19;55.65;98580.63;6839140;29;20213;-84
2021/01/07 10:08:16;;;;;;;15.07;11.77;;;;;;;8.18;55.80;98572.75;6839156;29;20209;-88
2021/01/07 10:11:38;;;;;;;15.63;11.50;;;;;;;8.36;55.69;98571.28;6838924;28;20242;-87
2021/01/07 10:14:59;;;;;;;16.93;12.10;;;;;;;8.28;55.89;98582.19;6838802;29;20213;-87
2021/01/07 10:18:20;;;;;;;15.77;11.53;;;;;;;8.61;55.41;98572.44;6839601;29;20400;-87
2021/01/07 10:21:41;;;;;;;13.70;9.53;;;;;;;8.48;53.47;98572.38;6838126;29;20711;-87
2021/01/07 10:25:05;;;;;;;14.00;11.07;;;;;;;8.44;54.55;98568.41;6838845;29;20692;-86
2021/01/07 10:28:28;;;;;;;13.97;10.37;;;;;;;7.91;54.85;98578.97;6839017;29;20224;-87
2021/01/07 10:31:49;;;;;;;15.70;11.47;;;;;;;7.79;55.73;98580.50;6837609;29;20235;-86
2021/01/07 10:35:11;;;;;;;17.33;11.90;;;;;;;8.38;55.91;98568.41;6838768;29;20220;-87
2021/01/07 10:38:32;;;;;;;18.07;12.63;;;;;;;8.49;55.31;98563.28;6838268;29;20204;-87
2021/01/07 10:41:56;;;;;;;16.13;11.87;;;;;;;8.40;54.96;98574.41;6840936;29;20241;-87
2021/01/07 10:45:19;;;;;;;15.87;10.30;;;;;;;8.60;53.16;98567.31;6838009;29;20218;-87
2021/01/07 10:48:43;;;;;;;13.53;10.23;;;;;;;8.00;55.54;98561.66;6837161;29;20547;-87
2021/01/07 10:52:34;;;;;;;11.00;9.10;;;;;;;7.95;54.37;98562.25;6839674;28;20263;-87
2021/01/07 10:56:02;;;;;;;13.57;10.37;;;;;;;8.10;54.09;98562.16;6836165;29;20551;-88
2021/01/07 10:59:30;;;;;;;12.60;9.60;;;;;;;8.66;53.54;98556.56;6855094;28;20269;-87
2021/01/07 11:03:17;;;;;;;11.07;9.20;;;;;;;8.59;52.85;98552.19;6863378;28;20574;-87
2021/01/07 11:06:40;;;;;;;10.83;8.70;;;;;;;8.64;52.32;98534.44;6851210;28;20223;-86
2021/01/07 11:10:04;;;;;;;13.20;9.07;;;;;;;8.92;53.22;98532.50;6856506;28;20215;-86
2021/01/07 11:13:32;;;;;;;12.30;9.43;;;;;;;9.17;52.73;98536.31;6837313;29;20312;-86
2021/01/07 11:16:57;;;;;;;10.73;8.93;;;;;;;8.74;51.11;98501.81;6854515;28;20251;-87
2021/01/07 11:20:21;;;;;;;10.93;8.97;;;;;;;9.45;50.87;98512.78;6839746;28;20317;-87
2021/01/07 11:23:43;;;;;;;13.47;9.27;;;;;;;9.13;51.66;98510.84;6842949;28;20656;-85
2021/01/07 11:27:05;;;;;;;11.10;8.90;;;;;;;9.19;51.10;98516.25;6838235;29;20209;-87
2021/01/07 11:30:27;;;;;;;12.93;9.67;;;;;;;9.28;50.29;98509.63;6838206;28;20304;-88
2021/01/07 11:33:50;;;;;;;10.70;8.97;;;;;;;8.96;50.73;98488.03;6841621;28;20212;-87
2021/01/07 11:37:15;;;;;;;13.60;10.07;;;;;;;9.38;50.44;98501.16;6837393;28;20201;-88
2021/01/07 11:40:40;;;;;;;14.53;9.87;;;;;;;9.09;49.99;98491.59;6847155;28;20227;-86
2021/01/07 11:44:12;;;;;;;13.47;10.03;;;;;;;8.70;51.30;98460.25;6846284;28;20218;-86
2021/01/07 11:47:38;;;;;;;11.63;9.37;;;;;;;9.25;49.36;98483.16;6836165;29;20256;-85
2021/01/07 11:51:03;;;;;;;11.37;9.13;;;;;;;8.69;51.67;98482.78;6835047;29;20296;-85
2021/01/07 11:54:27;;;;;;;13.40;10.50;;;;;;;9.07;49.65;98486.66;6836129;29;20202;-85
2021/01/07 11:57:49;;;;;;;12.67;9.80;;;;;;;8.91;49.86;98446.69;6836392;29;20215;-88
2021/01/07 12:01:12;;;;;;;15.07;10.03;;;;;;;8.87;50.86;98474.97;6835219;29;20236;-87
2021/01/07 12:04:34;;;;;;;12.07;9.70;;;;;;;9.37;50.08;98470.75;6835520;29;20206;-88
2021/01/07 12:08:01;;;;;;;12.37;10.47;;;;;;;9.46;50.06;98468.69;6857862;28;20672;-88
2021/01/07 12:11:26;;;;;;;17.03;11.97;;;;;;;9.39;50.63;98471.38;6858199;28;20320;-88
2021/01/07 12:14:49;;;;;;;12.70;10.00;;;;;;;9.52;49.76;98471.38;6834219;29;20260;-85
2021/01/07 12:18:12;;;;;;;12.93;10.23;;;;;;;9.49;50.89;98465.56;6845900;28;20228;-87
2021/01/07 12:21:33;;;;;;;14.13;10.33;;;;;;;9.56;49.93;98471.81;6847869;28;20239;-87
2021/01/07 12:24:55;;;;;;;13.07;10.33;;;;;;;9.21;49.91;98464.94;6846745;28;20215;-87
2021/01/07 12:28:18;;;;;;;12.20;9.43;;;;;;;9.37;50.10;98456.47;6834912;29;20202;-87
2021/01/07 12:31:40;;;;;;;12.50;10.27;;;;;;;9.12;50.40;98460.78;6853635;28;20228;-87
2021/01/07 12:35:06;;;;;;;14.33;9.33;;;;;;;8.68;52.05;98463.16;6860998;28;20681;-88
2021/01/07 12:38:36;;;;;;;12.93;10.67;;;;;;;8.76;51.15;98464.81;6856771;28;20209;-86
2021/01/07 12:41:58;;;;;;;11.27;9.20;;;;;;;8.83;51.16;98364.34;6832933;29;20472;-88
2021/01/07 12:45:20;;;;;;;12.40;10.13;;;;;;;9.13;50.84;98453.56;6834027;29;20202;-87
2021/01/07 12:48:41;;;;;;;12.03;10.50;;;;;;;8.93;51.10;98430.13;6834624;29;20190;-88
2021/01/07 12:52:03;;;;;;;15.70;10.80;;;;;;;9.13;51.04;98438.22;6838503;28;20762;-88
2021/01/07 12:55:25;;;;;;;12.17;9.77;;;;;;;9.08;50.60;98444.22;6861699;28;20699;-88
2021/01/07 12:58:48;;;;;;;12.73;10.43;;;;;;;9.15;51.43;98452.31;6861035;28;20205;-88
2021/01/07 13:02:20;;;;;;;13.77;10.80;;;;;;;9.04;50.64;98447.53;6841274;28;20237;-88
2021/01/07 13:05:47;;;;;;;13.60;10.90;;;;;;;9.07;51.72;98440.94;6858024;28;20641;-87
2021/01/07 13:09:09;;;;;;;13.03;10.50;;;;;;;8.92;52.35;98446.47;6845640;28;20193;-88
2021/01/07 13:12:32;;;;;;;16.10;11.93;;;;;;;8.81;52.39;98440.84;6836107;28;20228;-85
2021/01/07 13:15:53;;;;;;;13.10;10.27;;;;;;;8.48;51.92;98383.53;6833094;28;20221;-87
2021/01/07 13:19:15;;;;;;;14.17;10.27;;;;;;;8.81;52.55;98447.06;6834119;29;20209;-88
2021/01/07 13:22:39;;;;;;;13.73;10.80;;;;;;;9.06;52.21;98450.84;6837395;28;20228;-88
2021/01/07 13:26:01;;;;;;;14.80;10.77;;;;;;;9.01;52.08;98439.88;6862054;28;20229;-89
2021/01/07 13:29:22;;;;;;;13.40;10.90;;;;;;;9.09;52.80;98453.13;6862917;28;20208;-88
2021/01/07 13:32:45;;;;;;;16.27;10.83;;;;;;;9.03;52.58;98443.19;6872439;28;20278;-86
2021/01/07 13:36:09;;;;;;;13.57;11.47;;;;;;;9.21;51.97;98443.44;6892301;28;20216;-86
2021/01/07 13:39:30;;;;;;;13.10;10.70;;;;;;;9.07;52.15;98447.13;6881280;28;20197;-86
2021/01/07 13:42:53;;;;;;;12.47;10.13;;;;;;;8.97;51.97;98454.78;6845522;28;20231;-89
2021/01/07 13:46:19;;;;;;;13.40;10.13;;;;;;;8.98;52.18;98454.53;6858616;28;20210;-89
2021/01/07 13:49:41;;;;;;;15.27;11.23;;;;;;;8.97;52.46;98444.03;6860072;28;20203;-88
2021/01/07 13:53:04;;;;;;;16.00;10.53;;;;;;;8.33;53.24;98423.13;6859989;28;20229;-88
2021/01/07 13:56:27;;;;;;;13.13;10.47;;;;;;;8.82;52.66;98455.94;6860237;28;20205;-88
2021/01/07 13:59:48;;;;;;;12.93;10.23;;;;;;;8.85;52.14;98455.56;6859983;28;20721;-88
2021/01/07 14:03:09;;;;;;;14.40;10.87;;;;;;;8.78;51.92;98439.41;6860018;28;20260;-88
2021/01/07 14:06:31;;;;;;;16.43;10.60;;;;;;;8.28;52.80;98409.47;6862055;28;20201;-88
2021/01/07 14:09:57;;;;;;;13.13;10.93;;;;;;;8.56;52.90;98447.81;6859734;28;20223;-87
2021/01/07 14:13:19;;;;;;;15.00;10.73;;;;;;;8.48;53.49;98446.13;6833869;28;20655;-88
2021/01/07 14:16:40;;;;;;;12.33;10.83;;;;;;;8.86;52.31;98446.44;6847769;28;20212;-88
2021/01/07 14:20:03;;;;;;;14.43;10.87;;;;;;;8.69;52.47;98445.16;6857301;28;20229;-86
2021/01/07 14:23:25;;;;;;;12.20;9.83;;;;;;;8.09;53.21;98453.13;6834585;29;20594;-87
2021/01/07 14:27:01;;;;;;;11.53;9.60;;;;;;;7.97;53.49;98398.34;6833482;29;20216;-88
2021/01/07 14:30:23;;;;;;;11.57;9.80;;;;;;;8.52;53.08;98458.13;6832694;29;20191;-88
2021/01/07 14:33:45;;;;;;;14.87;11.13;;;;;;;8.48;53.12;98437.25;6835523;29;20578;-86
2021/01/07 14:37:06;;;;;;;20.90;15.10;;;;;;;8.73;52.49;98454.47;6834110;29;20217;-86
2021/01/07 14:40:29;;;;;;;16.27;12.53;;;;;;;8.70;52.49;98469.16;6834444;28;20231;-88
2021/01/07 14:43:52;;;;;;;14.90;11.07;;;;;;;8.59;52.11;98447.38;6838298;29;20217;-87
2021/01/07 14:47:16;;;;;;;12.80;9.47;;;;;;;8.88;51.36;98465.88;6855321;28;20634;-87
2021/01/07 14:50:41;;;;;;;14.23;10.87;;;;;;;8.35;52.62;98421.88;6843070;29;20229;-88
2021/01/07 14:54:06;;;;;;;12.37;9.53;;;;;;;8.41;52.47;98428.31;6865638;28;20204;-85
2021/01/07 14:57:39;;;;;;;12.17;10.00;;;;;;;8.60;52.26;98455.25;6867306;28;20207;-87
2021/01/07 15:01:06;;;;;;;12.43;10.10;;;;;;;8.37;52.18;98411.75;6864893;28;20262;-88
2021/01/07 15:04:38;;;;;;;13.47;11.00;;;;;;;8.37;52.26;98433.25;6856242;28;20202;-86
2021/01/07 15:08:07;;;;;;;13.30;10.07;;;;;;;8.60;52.30;98466.00;6848973;28;20256;-88
2021/01/07 15:11:31;;;;;;;13.07;11.13;;;;;;;8.79;51.92;98462.56;6865087;28;20705;-87
2021/01/07 15:15:01;;;;;;;13.27;10.70;;;;;;;8.77;51.90;98453.88;6866112;28;20212;-88
2021/01/07 15:18:39;;;;;;;11.33;9.13;;;;;;;8.62;52.11;98476.56;6866208;28;20210;-88
2021/01/07 15:22:26;;;;;;;14.53;11.87;;;;;;;8.54;51.96;98457.94;6864816;28;20235;-87
2021/01/07 15:25:49;;;;;;;14.00;10.97;;;;;;;8.18;53.03;98466.19;6863229;28;20290;-89
2021/01/07 15:29:10;;;;;;;10.57;8.90;;;;;;;8.44;52.31;98466.34;6863501;28;20234;-86
2021/01/07 15:32:33;;;;;;;19.63;13.47;;;;;;;8.20;53.33;98461.47;6862510;28;20239;-88
2021/01/07 15:35:56;;;;;;;17.53;12.73;;;;;;;7.99;53.55;98407.00;6863621;28;20199;-88
2021/01/07 15:39:53;;;;;;;17.20;13.97;;;;;;;8.14;53.54;98470.28;6863485;28;20259;-87
2021/01/07 15:43:43;;;;;;;18.00;13.73;;;;;;;7.46;55.44;98437.19;6836015;29;20295;-85
2021/01/07 15:47:43;;;;;;;14.83;11.23;;;;;;;7.88;54.62;98475.50;6842624;28;20205;-84
2021/01/07 15:51:07;;;;;;;15.50;12.70;;;;;;;7.48;55.56;98478.09;6808334;28;20230;-87
2021/01/07 15:54:39;;;;;;;20.73;16.10;;;;;;;7.44;55.63;98461.56;6837079;29;20295;-87
2021/01/07 15:58:32;;;;;;;15.63;13.17;;;;;;;7.48;55.00;98433.31;6837507;28;20212;-87
2021/01/07 16:01:54;;;;;;;17.57;13.30;;;;;;;7.72;54.82;98464.25;6837764;29;20244;-88
2021/01/07 16:05:20;;;;;;;17.23;13.43;;;;;;;7.59;55.08;98469.47;6839869;29;20202;-86
2021/01/07 16:08:42;;;;;;;18.73;14.13;;;;;;;7.56;55.88;98477.94;6837294;29;20252;-87
2021/01/07 16:12:05;;;;;;;20.33;14.17;;;;;;;7.43;56.25;98472.47;6842632;29;20233;-85
2021/01/07 16:15:26;;;;;;;24.53;16.67;;;;;;;7.63;56.11;98476.13;6837928;28;20205;-84
2021/01/07 16:18:55;;;;;;;19.63;14.10;;;;;;;7.68;56.04;98487.13;6837141;29;20252;-87
2021/01/07 16:22:20;;;;;;;19.37;13.77;;;;;;;7.34;56.65;98474.44;6837662;28;20328;-87
2021/01/07 16:25:50;;;;;;;17.67;12.97;;;;;;;7.74;55.66;98483.66;6838450;29;20724;-87
2021/01/07 16:29:11;;;;;;;16.87;13.57;;;;;;;7.12;56.41;98491.56;6849594;28;20212;-86
2021/01/07 16:32:32;;;;;;;19.43;13.33;;;;;;;7.15;57.47;98488.50;6862427;28;20232;-84
2021/01/07 16:35:54;;;;;;;20.43;14.40;;;;;;;7.34;57.18;98489.69;6862814;28;20210;-86
2021/01/07 16:39:16;;;;;;;23.60;17.87;;;;;;;7.53;56.55;98500.59;6876864;28;20214;-85
2021/01/07 16:42:38;;;;;;;19.63;15.10;;;;;;;7.52;56.46;98485.53;6847496;28;20245;-86
2021/01/07 16:46:00;;;;;;;23.17;14.47;;;;;;;7.77;55.39;98494.00;6836373;28;20623;-86
2021/01/07 16:49:21;;;;;;;23.93;16.53;;;;;;;7.46;55.76;98489.00;6841895;28;20213;-86
2021/01/07 16:52:43;;;;;;;26.83;18.97;;;;;;;6.95;56.50;98439.22;6844883;28;20286;-87
2021/01/07 16:56:06;;;;;;;23.40;16.47;;;;;;;7.14;57.00;98470.72;6836083;29;20211;-87
2021/01/07 16:59:28;;;;;;;20.00;14.20;;;;;;;7.03;57.42;98487.34;6836155;29;20216;-87
2021/01/07 17:02:49;;;;;;;24.40;15.63;;;;;;;6.75;57.44;98490.94;6847585;28;20600;-86
2021/01/07 17:06:10;;;;;;;22.50;15.97;;;;;;;7.13;57.53;98500.44;6835635;28;20210;-86
2021/01/07 17:09:31;;;;;;;22.77;15.73;;;;;;;5.86;58.26;98364.63;6835255;28;20200;-87
2021/01/07 17:12:53;;;;;;;21.23;14.27;;;;;;;6.82;57.95;98491.84;6834706;29;20241;-86
2021/01/07 17:16:15;;;;;;;21.53;14.53;;;;;;;6.86;57.84;98496.66;6853333;28;20207;-86
2021/01/07 17:19:36;;;;;;;23.07;15.00;;;;;;;6.83;58.02;98496.19;6863028;28;20215;-86
2021/01/07 17:22:58;;;;;;;20.07;14.20;;;;;;;6.99;57.79;98488.75;6861558;28;20235;-86
2021/01/07 17:26:23;;;;;;;17.80;13.93;;;;;;;7.05;56.92;98487.13;6863387;28;20580;-86
2021/01/07 17:29:44;;;;;;;15.97;12.57;;;;;;;6.62;57.69;98426.50;6860673;28;20235;-86
2021/01/07 17:33:06;;;;;;;19.03;13.80;;;;;;;6.93;57.18;98449.31;6848767;28;20241;-84
2021/01/07 17:36:27;;;;;;;20.63;14.37;;;;;;;6.95;56.87;98473.25;6838427;28;20204;-85
2021/01/07 17:39:48;;;;;;;22.60;16.83;;;;;;;6.85;57.14;98460.13;6835169;29;20212;-85
2021/01/07 17:43:10;;;;;;;18.40;13.70;;;;;;;7.02;56.78;98483.00;6836788;28;20230;-86
2021/01/07 17:46:31;;;;;;;19.17;13.20;;;;;;;7.07;57.12;98498.53;6836024;29;20257;-85
2021/01/07 17:49:53;;;;;;;18.97;13.57;;;;;;;7.20;57.01;98488.75;6834469;28;20223;-86
2021/01/07 17:53:14;;;;;;;19.47;14.93;;;;;;;6.86;57.40;98453.78;6835162;29;20301;-86
2021/01/07 17:56:36;;;;;;;22.30;16.00;;;;;;;7.02;57.76;98495.56;6835654;28;20271;-86
2021/01/07 17:59:59;;;;;;;23.33;15.43;;;;;;;6.70;58.36;98470.06;6836212;29;20620;-85
2021/01/07 18:03:20;;;;;;;21.10;16.23;;;;;;;6.65;59.08;98493.91;6839105;28;20230;-86
2021/01/07 18:06:43;;;;;;;20.73;15.50;;;;;;;6.67;59.53;98512.50;6872544;28;20215;-85
2021/01/07 18:10:05;;;;;;;22.97;16.10;;;;;;;6.81;59.30;98495.53;6877192;28;20286;-85
2021/01/07 18:13:26;;;;;;;24.50;16.90;;;;;;;6.75;58.73;98473.03;6869727;28;20229;-86
2021/01/07 18:16:48;;;;;;;20.43;15.40;;;;;;;7.01;58.13;98494.72;6864192;28;20203;-86
2021/01/07 18:20:09;;;;;;;19.87;15.20;;;;;;;7.09;57.76;98494.63;6854128;28;20204;-86
2021/01/07 18:23:31;;;;;;;19.93;14.87;;;;;;;7.10;57.65;98504.34;6857685;28;20616;-85
2021/01/07 18:26:53;;;;;;;22.50;14.43;;;;;;;6.94;57.74;98482.28;6846638;28;20294;-86
2021/01/07 18:30:15;;;;;;;20.67;15.17;;;;;;;7.45;57.01;98510.63;6837304;29;20211;-86
2021/01/07 18:33:37;;;;;;;21.43;14.87;;;;;;;7.52;56.19;98501.63;6839937;28;20216;-86
2021/01/07 18:36:58;;;;;;;17.60;12.77;;;;;;;7.39;56.83;98503.38;6836896;29;20248;-86
2021/01/07 18:40:23;;;;;;;19.17;13.37;;;;;;;7.30;56.06;98493.81;6842966;28;20216;-89
2021/01/07 18:43:46;;;;;;;42.43;24.90;;;;;;;6.87;57.99;98498.31;6838700;29;20192;-85
2021/01/07 18:47:07;;;;;;;23.20;17.00;;;;;;;6.85;58.28;98515.59;6837693;28;20838;-84
2021/01/07 18:50:28;;;;;;;21.90;15.53;;;;;;;6.55;58.69;98501.41;6836258;29;20600;-85
2021/01/07 18:53:50;;;;;;;24.87;16.17;;;;;;;6.88;58.15;98499.97;6838756;29;20282;-85
2021/01/07 18:57:12;;;;;;;22.17;15.33;;;;;;;7.24;57.39;98505.28;6838883;29;20212;-85
2021/01/07 19:00:33;;;;;;;24.47;16.50;;;;;;;7.18;57.34;98498.84;6837575;29;20236;-87
2021/01/07 19:03:55;;;;;;;24.33;15.83;;;;;;;6.94;57.73;98504.56;6855387;28;20217;-84
2021/01/07 19:07:16;;;;;;;27.50;17.93;;;;;;;7.06;57.28;98494.16;6836966;29;20791;-87
2021/01/07 19:10:37;;;;;;;37.90;21.60;;;;;;;6.97;57.92;98492.63;6840420;29;20701;-85
2021/01/07 19:13:59;;;;;;;39.33;29.27;;;;;;;7.27;58.01;98503.06;6839445;29;20211;-87
2021/01/07 19:17:20;;;;;;;37.57;26.03;;;;;;;6.85;59.14;98502.19;6841727;28;20203;-85
2021/01/07 19:20:42;;;;;;;52.50;32.33;;;;;;;7.06;58.25;98507.56;6852925;28;20235;-82
2021/01/07 19:24:04;;;;;;;32.40;23.47;;;;;;;7.21;57.59;98473.50;6844404;29;20224;-84
2021/01/07 19:27:25;;;;;;;25.50;17.63;;;;;;;7.38;56.91;98483.75;6841511;28;20262;-84
2021/01/07 19:30:47;;;;;;;23.03;16.03;;;;;;;7.26;57.02;98505.94;6836278;29;20239;-86
2021/01/07 19:34:08;;;;;;;20.90;15.37;;;;;;;7.27;56.89;98489.66;6842480;28;20226;-85
2021/01/07 19:37:30;;;;;;;18.63;14.77;;;;;;;7.42;56.61;98505.69;6861295;28;20591;-84
2021/01/07 19:40:51;;;;;;;22.57;16.10;;;;;;;7.02;57.27;98474.13;6863363;28;20318;-85
2021/01/07 19:44:12;;;;;;;20.10;15.03;;;;;;;7.13;56.87;98476.31;6863965;28;20205;-82
2021/01/07 19:47:34;;;;;;;20.17;14.37;;;;;;;7.26;56.72;98497.88;6837622;28;20615;-84
2021/01/07 19:50:56;;;;;;;20.93;14.67;;;;;;;7.18;57.02;98504.19;6834074;29;20618;-83
2021/01/07 19:54:17;;;;;;;18.27;13.93;;;;;;;7.05;56.86;98500.53;6836935;29;20201;-86
2021/01/07 19:57:39;;;;;;;20.27;13.63;;;;;;;6.80;56.75;98443.81;6837919;29;20218;-84
2021/01/07 20:01:00;;;;;;;19.20;15.10;;;;;;;7.10;56.36;98474.84;6836781;29;20240;-85
2021/01/07 20:04:22;;;;;;;20.10;14.87;;;;;;;7.28;55.83;98514.59;6840607;29;20270;-86
2021/01/07 20:07:45;;;;;;;20.97;14.87;;;;;;;7.15;56.41;98517.16;6839538;28;20684;-85
2021/01/07 20:11:06;;;;;;;24.77;15.73;;;;;;;7.17;56.67;98515.94;6842497;29;20581;-85
2021/01/07 20:14:27;;;;;;;35.00;21.33;;;;;;;7.01;56.57;98483.19;6852963;29;20212;-84
2021/01/07 20:17:48;;;;;;;25.70;17.70;;;;;;;7.03;56.73;98500.75;6856547;28;20208;-85
2021/01/07 20:21:11;;;;;;;21.63;16.93;;;;;;;6.27;56.67;98363.06;6859354;28;20241;-87
2021/01/07 20:24:32;;;;;;;21.13;15.47;;;;;;;7.01;57.17;98516.19;6862450;28;20214;-85